Terminal Aerodrome Forecast
Issued by NWS Salt Lake City, UT

Home | Current Version | Previous Version | Text Only | Print | Product List | Glossary On
Versions: 1 2 3 4 5 6 7 8 9 10 11 12 13 14 15 16 17 18 19 20 21 22 23 24 25 26 27 28 29 30 31 32 33 34 35 36 37 38
000
FTUS45 KSLC 021127
TAFCDC
TAF
KCDC 021127Z 0212/0312 VRB04KT 2SM -SN BR OVC030
      TEMPO 0212/0216 3/4SM -SN BR VV005
     FM021600 21010KT 3SM -SN BR BKN010 OVC020
     FM022300 21010KT P6SM VCSH SCT010 BKN030=

USA.gov is the U.S. government's official web portal to all federal, state and local government web resources and services.